Time;durP1;ratioP1;P1;durP2;ratioP2;P2;SDS_P1;SDS_P2;PMS_P1;PMS_P2;Temp;Humidity;BMP_temperature;BMP_pressure;BME280_temperature;BME280_humidity;BME280_pressure;Samples;Min_cycle;Max_cycle;Signal;HPM_P1;HPM_P2
2024/03/30 00:01:30;;;;;;;25.02;23.02;;;;;;;;;;5026831;28;20086;-49
2024/03/30 00:03:56;;;;;;;25.77;23.67;;;;;;;;;;5026745;28;20025;-49
2024/03/30 00:06:22;;;;;;;27.73;25.63;;;;;;;;;;4680388;28;10000881;-47
2024/03/30 00:08:48;;;;;;;27.90;25.73;;;;;;;;;;5008360;28;20033;-51
2024/03/30 00:11:14;;;;;;;28.00;25.88;;;;;;;;;;5023691;28;20037;-53
2024/03/30 00:13:40;;;;;;;28.20;26.00;;;;;;;;;;5027600;28;20101;-47
2024/03/30 00:16:09;;;;;;;27.60;25.50;;;;;;;;;;5028148;28;20018;-47
2024/03/30 00:18:36;;;;;;;27.70;25.60;;;;;;;;;;5026320;28;20029;-49
2024/03/30 00:21:03;;;;;;;27.60;25.50;;;;;;;;;;5027774;28;20479;-47
2024/03/30 00:23:29;;;;;;;27.50;25.40;;;;;;;;;;5027615;28;20075;-50
2024/03/30 00:25:55;;;;;;;27.85;25.65;;;;;;;;;;5027389;28;20079;-51
2024/03/30 00:28:21;;;;;;;27.90;25.70;;;;;;;;;;5027599;28;20025;-51
2024/03/30 00:30:47;;;;;;;28.30;26.10;;;;;;;;;;5027451;28;20041;-51
2024/03/30 00:33:14;;;;;;;28.70;26.50;;;;;;;;;;5025784;28;20018;-54
2024/03/30 00:35:40;;;;;;;28.00;25.80;;;;;;;;;;5027371;28;20029;-50
2024/03/30 00:38:07;;;;;;;27.95;25.75;;;;;;;;;;5027455;28;20024;-51
2024/03/30 00:40:33;;;;;;;28.42;26.23;;;;;;;;;;5028958;28;20087;-50
2024/03/30 00:42:59;;;;;;;27.77;25.67;;;;;;;;;;4680161;28;10000494;-49
2024/03/30 00:45:25;;;;;;;28.15;26.02;;;;;;;;;;5025874;28;20098;-51
2024/03/30 00:47:51;;;;;;;27.98;25.88;;;;;;;;;;5027738;28;20014;-48
2024/03/30 00:50:17;;;;;;;28.50;26.30;;;;;;;;;;5029790;28;20045;-47
2024/03/30 00:52:43;;;;;;;28.25;26.05;;;;;;;;;;5025932;28;20383;-50
2024/03/30 00:55:09;;;;;;;27.95;25.85;;;;;;;;;;5026851;28;20026;-51
2024/03/30 00:57:41;;;;;;;27.80;25.70;;;;;;;;;;5027243;28;20013;-49
2024/03/30 01:00:07;;;;;;;27.77;25.67;;;;;;;;;;5026843;28;20021;-50
2024/03/30 01:02:33;;;;;;;27.67;25.58;;;;;;;;;;5025656;28;20025;-51
2024/03/30 01:04:59;;;;;;;27.75;25.65;;;;;;;;;;5029267;28;20039;-52
2024/03/30 01:07:25;;;;;;;27.23;25.13;;;;;;;;;;5050766;23;20045;-52
2024/03/30 01:09:52;;;;;;;27.30;25.20;;;;;;;;;;5028402;28;20026;-52
2024/03/30 01:12:18;;;;;;;27.83;25.73;;;;;;;;;;5027478;28;20017;-53
2024/03/30 01:14:44;;;;;;;27.58;25.48;;;;;;;;;;5028211;28;20029;-54
2024/03/30 01:17:10;;;;;;;27.40;25.30;;;;;;;;;;5028473;28;20457;-54
2024/03/30 01:19:36;;;;;;;27.38;25.27;;;;;;;;;;5028361;28;20539;-56
2024/03/30 01:22:02;;;;;;;27.70;25.60;;;;;;;;;;5028474;28;20040;-55
2024/03/30 01:24:28;;;;;;;27.92;25.83;;;;;;;;;;5028909;28;20432;-56
2024/03/30 01:26:56;;;;;;;27.20;25.10;;;;;;;;;;5027851;28;20454;-54
2024/03/30 01:29:24;;;;;;;27.48;25.38;;;;;;;;;;5027996;28;20080;-52
2024/03/30 01:31:51;;;;;;;27.60;25.50;;;;;;;;;;5029183;28;20041;-54
2024/03/30 01:34:17;;;;;;;28.02;25.92;;;;;;;;;;5028889;28;20037;-53
2024/03/30 01:36:43;;;;;;;27.80;25.70;;;;;;;;;;5029074;28;20018;-56
2024/03/30 01:39:09;;;;;;;27.65;25.55;;;;;;;;;;5029061;28;20025;-55
2024/03/30 01:41:38;;;;;;;27.65;25.55;;;;;;;;;;5028821;28;20399;-55
2024/03/30 01:44:04;;;;;;;27.77;25.67;;;;;;;;;;5028790;28;20057;-53
2024/03/30 01:46:31;;;;;;;27.73;25.63;;;;;;;;;;5028688;28;20061;-58
2024/03/30 01:48:57;;;;;;;27.52;25.42;;;;;;;;;;5028899;28;20025;-50
2024/03/30 01:51:24;;;;;;;27.55;25.45;;;;;;;;;;5031361;28;20411;-57
2024/03/30 01:53:51;;;;;;;27.70;25.60;;;;;;;;;;5032337;28;20573;-54
2024/03/30 01:56:18;;;;;;;27.92;25.83;;;;;;;;;;5031635;28;20361;-58
2024/03/30 01:58:47;;;;;;;27.73;25.63;;;;;;;;;;5032010;28;20029;-54
2024/03/30 02:01:13;;;;;;;27.20;25.10;;;;;;;;;;5032476;28;20072;-53
2024/03/30 02:03:39;;;;;;;27.65;25.55;;;;;;;;;;5032551;28;20475;-56
2024/03/30 02:06:06;;;;;;;27.63;25.52;;;;;;;;;;5032291;28;20087;-51
2024/03/30 02:08:32;;;;;;;27.40;25.30;;;;;;;;;;5032409;28;20419;-53
2024/03/30 02:11:00;;;;;;;27.15;25.05;;;;;;;;;;5032598;28;20124;-55
2024/03/30 02:13:26;;;;;;;26.90;24.80;;;;;;;;;;5032004;28;20503;-51
2024/03/30 02:15:52;;;;;;;27.33;25.23;;;;;;;;;;5032119;28;20036;-54
2024/03/30 02:18:18;;;;;;;27.50;25.40;;;;;;;;;;5032195;28;20112;-56
2024/03/30 02:20:44;;;;;;;27.33;25.23;;;;;;;;;;5030664;28;20026;-55
2024/03/30 02:23:14;;;;;;;27.55;25.45;;;;;;;;;;5031663;28;20547;-56
2024/03/30 02:25:40;;;;;;;27.80;25.70;;;;;;;;;;5032028;28;20540;-54
2024/03/30 02:28:06;;;;;;;27.15;25.05;;;;;;;;;;5032200;28;20075;-53
2024/03/30 02:30:33;;;;;;;27.23;25.13;;;;;;;;;;5032188;28;20564;-56
2024/03/30 02:32:59;;;;;;;27.20;25.10;;;;;;;;;;5031884;28;20022;-55
2024/03/30 02:35:26;;;;;;;27.95;25.85;;;;;;;;;;5032574;28;20091;-57
2024/03/30 02:37:55;;;;;;;27.85;25.75;;;;;;;;;;5030844;28;20399;-54
2024/03/30 02:40:26;;;;;;;28.23;26.13;;;;;;;;;;5031896;28;20135;-53
2024/03/30 02:42:52;;;;;;;28.25;26.15;;;;;;;;;;5031204;28;20049;-56
2024/03/30 02:45:18;;;;;;;27.83;25.73;;;;;;;;;;5031733;28;20026;-56
2024/03/30 02:47:44;;;;;;;27.63;25.52;;;;;;;;;;5031948;28;20025;-54
2024/03/30 02:50:10;;;;;;;27.70;25.60;;;;;;;;;;5031897;28;20036;-55
2024/03/30 02:52:36;;;;;;;28.23;26.13;;;;;;;;;;5032043;28;20033;-54
2024/03/30 02:55:03;;;;;;;27.70;25.60;;;;;;;;;;5032059;28;20022;-56
2024/03/30 02:57:29;;;;;;;27.60;25.50;;;;;;;;;;5032218;28;20044;-55
2024/03/30 02:59:55;;;;;;;28.00;25.90;;;;;;;;;;5031889;28;20083;-56
2024/03/30 03:02:21;;;;;;;27.95;25.85;;;;;;;;;;5031162;28;20048;-56
2024/03/30 03:04:48;;;;;;;27.52;25.42;;;;;;;;;;5031516;28;20030;-53
2024/03/30 03:07:15;;;;;;;27.80;25.70;;;;;;;;;;5031260;28;20526;-54
2024/03/30 03:09:42;;;;;;;27.80;25.70;;;;;;;;;;5029971;28;20033;-56
2024/03/30 03:12:08;;;;;;;27.80;25.70;;;;;;;;;;5030939;28;20541;-55
2024/03/30 03:14:35;;;;;;;27.85;25.75;;;;;;;;;;5030987;28;20029;-55
2024/03/30 03:17:01;;;;;;;27.50;25.40;;;;;;;;;;5031085;28;20089;-56
2024/03/30 03:19:27;;;;;;;27.67;25.58;;;;;;;;;;5031449;28;20163;-59
2024/03/30 03:21:53;;;;;;;27.40;25.30;;;;;;;;;;5031433;28;20044;-56
2024/03/30 03:24:19;;;;;;;27.55;25.45;;;;;;;;;;5030813;28;20021;-56
2024/03/30 03:26:45;;;;;;;27.45;25.35;;;;;;;;;;5029409;28;20431;-53
2024/03/30 03:29:11;;;;;;;27.48;25.38;;;;;;;;;;5031048;28;20079;-58
2024/03/30 03:31:37;;;;;;;27.27;25.17;;;;;;;;;;5030963;28;20053;-54
2024/03/30 03:34:03;;;;;;;27.38;25.27;;;;;;;;;;5030786;28;20116;-58
2024/03/30 03:36:29;;;;;;;27.20;25.10;;;;;;;;;;5030926;28;20021;-58
2024/03/30 03:38:55;;;;;;;27.33;25.23;;;;;;;;;;5029726;28;20091;-58
2024/03/30 03:41:21;;;;;;;27.10;25.00;;;;;;;;;;5030963;28;20017;-58
2024/03/30 03:43:48;;;;;;;27.27;25.17;;;;;;;;;;5030424;28;20450;-56
2024/03/30 03:46:14;;;;;;;27.08;24.98;;;;;;;;;;5029355;28;20140;-55
2024/03/30 03:48:39;;;;;;;26.85;24.75;;;;;;;;;;5030690;28;20546;-56
2024/03/30 03:51:06;;;;;;;26.15;24.15;;;;;;;;;;5030596;28;20113;-53
2024/03/30 03:53:32;;;;;;;26.98;24.88;;;;;;;;;;5030270;28;20053;-56
2024/03/30 03:55:58;;;;;;;26.52;24.42;;;;;;;;;;5029464;28;20083;-57
2024/03/30 03:58:24;;;;;;;25.63;23.63;;;;;;;;;;5030884;28;20041;-58
2024/03/30 04:00:50;;;;;;;26.00;24.00;;;;;;;;;;5031666;28;20594;-56
2024/03/30 04:03:16;;;;;;;26.20;24.20;;;;;;;;;;5029193;28;20029;-55
2024/03/30 04:05:42;;;;;;;25.95;23.95;;;;;;;;;;5030304;28;20109;-52
2024/03/30 04:08:08;;;;;;;26.15;24.15;;;;;;;;;;5029181;28;20053;-55
2024/03/30 04:10:34;;;;;;;25.92;23.92;;;;;;;;;;5029021;28;20040;-54
2024/03/30 04:13:00;;;;;;;25.67;23.67;;;;;;;;;;5030117;28;20041;-54
2024/03/30 04:15:26;;;;;;;25.85;23.85;;;;;;;;;;5029451;28;20104;-57
2024/03/30 04:17:52;;;;;;;25.77;23.77;;;;;;;;;;5030003;28;20033;-61
2024/03/30 04:20:18;;;;;;;25.65;23.65;;;;;;;;;;5030107;28;20022;-56
2024/03/30 04:22:44;;;;;;;25.55;23.55;;;;;;;;;;5030043;28;20022;-56
2024/03/30 04:25:10;;;;;;;25.52;23.52;;;;;;;;;;5028776;28;20534;-52
2024/03/30 04:27:36;;;;;;;25.67;23.67;;;;;;;;;;5029730;28;20116;-53
2024/03/30 04:30:03;;;;;;;24.83;22.83;;;;;;;;;;5028490;28;20103;-54
2024/03/30 04:32:29;;;;;;;25.15;23.15;;;;;;;;;;5029551;28;20052;-54
2024/03/30 04:34:54;;;;;;;25.08;23.08;;;;;;;;;;5029499;28;20463;-55
2024/03/30 04:37:21;;;;;;;25.08;23.08;;;;;;;;;;5029941;28;20041;-56
2024/03/30 04:39:50;;;;;;;25.08;23.08;;;;;;;;;;5028394;28;20025;-57
2024/03/30 04:42:16;;;;;;;24.45;22.45;;;;;;;;;;5029574;28;20044;-56
2024/03/30 04:44:42;;;;;;;24.45;22.45;;;;;;;;;;5028054;28;20026;-53
2024/03/30 04:47:08;;;;;;;24.25;22.25;;;;;;;;;;5029751;28;20052;-58
2024/03/30 04:49:34;;;;;;;24.13;22.13;;;;;;;;;;5029383;28;20035;-55
2024/03/30 04:52:00;;;;;;;24.85;22.85;;;;;;;;;;5029521;28;20022;-55
2024/03/30 04:54:25;;;;;;;24.40;22.40;;;;;;;;;;5029095;28;20033;-57
2024/03/30 04:56:51;;;;;;;24.27;22.27;;;;;;;;;;5028068;28;20024;-56
2024/03/30 04:59:17;;;;;;;24.08;22.08;;;;;;;;;;5029514;28;20017;-56
2024/03/30 05:01:43;;;;;;;23.85;21.95;;;;;;;;;;5029209;28;20025;-53
2024/03/30 05:04:09;;;;;;;23.70;21.80;;;;;;;;;;5029236;28;20123;-53
2024/03/30 05:06:35;;;;;;;23.80;21.85;;;;;;;;;;5029038;28;20395;-50
2024/03/30 05:09:01;;;;;;;24.20;22.20;;;;;;;;;;5029208;28;20119;-55
2024/03/30 05:11:27;;;;;;;23.70;21.80;;;;;;;;;;5029169;28;20518;-56
2024/03/30 05:13:54;;;;;;;23.25;21.35;;;;;;;;;;5028678;28;20057;-54
2024/03/30 05:16:20;;;;;;;23.17;21.27;;;;;;;;;;5027749;28;20065;-53
2024/03/30 05:18:46;;;;;;;23.15;21.25;;;;;;;;;;5027803;28;20029;-55
2024/03/30 05:21:12;;;;;;;23.33;21.42;;;;;;;;;;5029012;28;20060;-53
2024/03/30 05:23:38;;;;;;;23.10;21.20;;;;;;;;;;5029079;28;20056;-53
2024/03/30 05:26:05;;;;;;;22.85;20.95;;;;;;;;;;5028843;28;20119;-54
2024/03/30 05:28:32;;;;;;;22.75;20.85;;;;;;;;;;5030031;28;20021;-55
2024/03/30 05:30:59;;;;;;;22.42;20.52;;;;;;;;;;5027981;28;20033;-54
2024/03/30 05:33:26;;;;;;;22.52;20.63;;;;;;;;;;5028838;28;20069;-52
2024/03/30 05:35:53;;;;;;;22.63;20.73;;;;;;;;;;5029061;28;20106;-54
2024/03/30 05:38:20;;;;;;;22.13;20.23;;;;;;;;;;5029068;28;20423;-56
2024/03/30 05:40:46;;;;;;;24.17;21.35;;;;;;;;;;5029370;28;20033;-54
2024/03/30 05:43:12;;;;;;;21.35;19.45;;;;;;;;;;5028666;28;20068;-55
2024/03/30 05:45:42;;;;;;;20.67;18.88;;;;;;;;;;5028748;28;20435;-53
2024/03/30 05:48:08;;;;;;;25.38;23.38;;;;;;;;;;5028516;28;20032;-55
2024/03/30 05:50:35;;;;;;;19.95;18.15;;;;;;;;;;5028754;28;20152;-56
2024/03/30 05:53:02;;;;;;;19.58;17.77;;;;;;;;;;5028532;28;20050;-54
2024/03/30 05:55:28;;;;;;;19.00;17.20;;;;;;;;;;5028536;28;20491;-54
2024/03/30 05:57:54;;;;;;;18.63;16.83;;;;;;;;;;5027192;28;20064;-56
2024/03/30 06:00:21;;;;;;;18.58;16.77;;;;;;;;;;5027291;28;20026;-56
2024/03/30 06:02:47;;;;;;;18.75;16.95;;;;;;;;;;5028176;28;20080;-55
2024/03/30 06:05:13;;;;;;;18.48;16.67;;;;;;;;;;5027312;28;20053;-56
2024/03/30 06:07:40;;;;;;;18.08;16.38;;;;;;;;;;5028340;28;20056;-52
2024/03/30 06:10:07;;;;;;;17.88;16.17;;;;;;;;;;5028731;28;20064;-55
2024/03/30 06:12:34;;;;;;;17.70;16.00;;;;;;;;;;5021522;28;20056;-52
2024/03/30 06:15:00;;;;;;;17.65;15.95;;;;;;;;;;5027905;28;20112;-55
2024/03/30 06:17:26;;;;;;;17.67;15.98;;;;;;;;;;5028107;28;20029;-54
2024/03/30 06:19:52;;;;;;;18.35;16.55;;;;;;;;;;5028307;28;20166;-54
2024/03/30 06:22:18;;;;;;;17.45;15.75;;;;;;;;;;5028508;28;20396;-54
2024/03/30 06:24:44;;;;;;;17.27;15.57;;;;;;;;;;5026956;28;20403;-55
2024/03/30 06:27:10;;;;;;;17.35;15.65;;;;;;;;;;5028248;28;20069;-53
2024/03/30 06:29:37;;;;;;;17.20;15.50;;;;;;;;;;5028324;28;20101;-53
2024/03/30 06:32:04;;;;;;;17.60;15.90;;;;;;;;;;5028390;28;20518;-56
2024/03/30 06:34:30;;;;;;;17.25;15.55;;;;;;;;;;5028174;28;20056;-56
2024/03/30 06:36:56;;;;;;;17.33;15.63;;;;;;;;;;5028607;28;20026;-53
2024/03/30 06:39:22;;;;;;;17.05;15.35;;;;;;;;;;5032062;28;20090;-52
2024/03/30 06:44:32;;;;;;;16.27;14.57;;;;;;;;;;5031915;28;20041;-54
2024/03/30 06:46:58;;;;;;;16.30;14.60;;;;;;;;;;5015407;28;20030;-54
2024/03/30 06:49:24;;;;;;;16.25;14.55;;;;;;;;;;5010818;28;20033;-56
2024/03/30 06:51:51;;;;;;;15.93;14.23;;;;;;;;;;5011762;28;20029;-54
2024/03/30 06:54:17;;;;;;;16.17;14.48;;;;;;;;;;5011868;28;20072;-55
2024/03/30 06:56:43;;;;;;;16.33;14.63;;;;;;;;;;5010699;28;20014;-56
2024/03/30 06:59:09;;;;;;;16.60;14.90;;;;;;;;;;5011809;28;20030;-54
2024/03/30 07:01:35;;;;;;;15.63;13.93;;;;;;;;;;5011699;28;20129;-53
2024/03/30 07:04:02;;;;;;;15.80;14.10;;;;;;;;;;5011518;28;20396;-53
2024/03/30 07:06:28;;;;;;;15.82;14.13;;;;;;;;;;5017769;22;20105;-56
2024/03/30 07:08:57;;;;;;;16.05;14.35;;;;;;;;;;4973637;28;20050;-54
2024/03/30 07:11:24;;;;;;;15.65;13.95;;;;;;;;;;4972397;28;20030;-54
2024/03/30 07:13:50;;;;;;;16.02;14.32;;;;;;;;;;4968625;28;20508;-57
2024/03/30 07:16:16;;;;;;;16.08;14.38;;;;;;;;;;4952650;28;20122;-53
2024/03/30 07:18:43;;;;;;;15.52;13.82;;;;;;;;;;4954009;28;20122;-55
2024/03/30 07:21:09;;;;;;;15.38;13.68;;;;;;;;;;4953963;28;20086;-55
2024/03/30 07:23:35;;;;;;;15.85;14.15;;;;;;;;;;4953681;28;20383;-52
2024/03/30 07:26:05;;;;;;;15.40;13.68;;;;;;;;;;4952763;28;20118;-57
2024/03/30 07:28:31;;;;;;;15.43;13.73;;;;;;;;;;4953957;28;20038;-57
2024/03/30 07:31:03;;;;;;;15.60;13.90;;;;;;;;;;4953861;28;20035;-55
2024/03/30 07:33:29;;;;;;;15.40;13.52;;;;;;;;;;4953648;28;20034;-54
2024/03/30 07:35:58;;;;;;;15.18;13.38;;;;;;;;;;4953756;28;20023;-56
2024/03/30 07:38:27;;;;;;;15.30;13.48;;;;;;;;;;4953836;28;20078;-57
2024/03/30 07:40:53;;;;;;;15.13;12.95;;;;;;;;;;4953652;28;20031;-58
2024/03/30 07:43:20;;;;;;;15.10;12.82;;;;;;;;;;4953414;28;20042;-54
2024/03/30 07:45:46;;;;;;;15.00;12.70;;;;;;;;;;4953697;28;20038;-51
2024/03/30 07:48:12;;;;;;;14.90;12.32;;;;;;;;;;4968136;28;20030;-57
2024/03/30 07:50:38;;;;;;;14.80;12.18;;;;;;;;;;4972777;28;20397;-55
2024/03/30 07:53:04;;;;;;;14.60;11.48;;;;;;;;;;4972777;28;20509;-55
2024/03/30 07:55:31;;;;;;;14.57;11.40;;;;;;;;;;4972975;28;20097;-52
2024/03/30 07:57:57;;;;;;;14.35;10.85;;;;;;;;;;4972908;28;20034;-52
2024/03/30 08:00:23;;;;;;;14.52;11.23;;;;;;;;;;4972798;28;20023;-62
2024/03/30 08:02:49;;;;;;;14.55;11.27;;;;;;;;;;4972603;28;20027;-58
2024/03/30 08:05:16;;;;;;;14.57;11.30;;;;;;;;;;4972942;28;20397;-60
2024/03/30 08:07:42;;;;;;;14.63;11.57;;;;;;;;;;4971387;28;20034;-57
2024/03/30 08:10:08;;;;;;;14.60;11.32;;;;;;;;;;4973234;28;20243;-57
2024/03/30 08:12:34;;;;;;;14.57;11.50;;;;;;;;;;4972884;28;20039;-56
2024/03/30 08:15:00;;;;;;;14.57;11.38;;;;;;;;;;4972464;28;20030;-56
2024/03/30 08:17:26;;;;;;;14.48;11.05;;;;;;;;;;4972538;28;20469;-56
2024/03/30 08:19:52;;;;;;;14.55;11.25;;;;;;;;;;4972170;28;20035;-58
2024/03/30 08:22:18;;;;;;;14.60;11.32;;;;;;;;;;4972366;28;20030;-58
2024/03/30 08:24:44;;;;;;;14.57;11.38;;;;;;;;;;4971982;28;20497;-57
2024/03/30 08:27:10;;;;;;;14.32;10.73;;;;;;;;;;4972313;28;20046;-56
2024/03/30 08:29:36;;;;;;;14.38;10.82;;;;;;;;;;4972247;28;20027;-57
2024/03/30 08:32:02;;;;;;;14.27;10.63;;;;;;;;;;4972269;28;20084;-58
2024/03/30 08:34:28;;;;;;;15.25;11.43;;;;;;;;;;4972064;28;20035;-54
2024/03/30 08:36:54;;;;;;;14.30;10.73;;;;;;;;;;4972108;28;20461;-58
2024/03/30 08:39:20;;;;;;;14.27;10.50;;;;;;;;;;4972125;28;20073;-54
2024/03/30 08:41:46;;;;;;;14.00;9.80;;;;;;;;;;4971816;28;20042;-52
2024/03/30 08:44:12;;;;;;;14.05;10.02;;;;;;;;;;4971788;28;20027;-56
2024/03/30 08:46:38;;;;;;;14.10;10.43;;;;;;;;;;4971683;28;20034;-57
2024/03/30 08:49:04;;;;;;;13.90;9.50;;;;;;;;;;4970676;28;20045;-58
2024/03/30 08:51:30;;;;;;;13.80;9.20;;;;;;;;;;4971870;28;20093;-55
2024/03/30 08:54:06;;;;;;;13.68;8.90;;;;;;;;;;4971611;28;20031;-54
2024/03/30 08:56:33;;;;;;;13.70;9.10;;;;;;;;;;4971722;28;20395;-58
2024/03/30 08:58:59;;;;;;;13.95;9.48;;;;;;;;;;4971671;28;20029;-57
2024/03/30 09:01:25;;;;;;;13.77;9.27;;;;;;;;;;4970962;28;20374;-51
2024/03/30 09:03:51;;;;;;;13.88;9.38;;;;;;;;;;4971406;28;20030;-47
2024/03/30 09:06:18;;;;;;;13.88;9.50;;;;;;;;;;4971404;28;20106;-50
2024/03/30 09:08:44;;;;;;;13.98;9.82;;;;;;;;;;4971538;28;20034;-52
2024/03/30 09:11:10;;;;;;;14.25;10.55;;;;;;;;;;4970111;28;20082;-50
2024/03/30 09:13:37;;;;;;;14.00;9.98;;;;;;;;;;4971199;28;20031;-48
2024/03/30 09:16:03;;;;;;;13.90;9.55;;;;;;;;;;4971586;28;20178;-48
2024/03/30 09:18:29;;;;;;;14.02;9.55;;;;;;;;;;4971398;28;20018;-47
2024/03/30 09:20:56;;;;;;;13.85;9.52;;;;;;;;;;4971863;28;20086;-48
2024/03/30 09:23:21;;;;;;;13.85;9.35;;;;;;;;;;4971211;28;20372;-48
2024/03/30 09:25:48;;;;;;;14.00;9.63;;;;;;;;;;4971339;28;20113;-51
2024/03/30 09:28:14;;;;;;;13.95;9.70;;;;;;;;;;4971427;28;20039;-47
2024/03/30 09:30:40;;;;;;;14.02;9.90;;;;;;;;;;4971370;28;20032;-47
2024/03/30 09:33:06;;;;;;;13.90;9.60;;;;;;;;;;4971012;28;20122;-50
2024/03/30 09:35:32;;;;;;;13.88;9.57;;;;;;;;;;4969611;28;20027;-47
2024/03/30 09:37:58;;;;;;;13.93;9.70;;;;;;;;;;4971173;28;20034;-48
2024/03/30 09:40:24;;;;;;;13.95;9.68;;;;;;;;;;4971476;28;20033;-50
2024/03/30 09:42:50;;;;;;;13.88;9.50;;;;;;;;;;4971035;28;20042;-48
2024/03/30 09:45:17;;;;;;;13.85;9.52;;;;;;;;;;4971214;28;20038;-50
2024/03/30 09:47:44;;;;;;;13.85;9.45;;;;;;;;;;4970489;28;20081;-48
2024/03/30 09:50:11;;;;;;;13.80;9.05;;;;;;;;;;4969351;28;20114;-49
2024/03/30 09:52:39;;;;;;;13.77;9.20;;;;;;;;;;4969102;28;20031;-50
2024/03/30 09:55:10;;;;;;;13.90;9.40;;;;;;;;;;4967964;28;20031;-50
2024/03/30 09:57:39;;;;;;;14.02;9.80;;;;;;;;;;4969257;28;20494;-48
2024/03/30 10:00:05;;;;;;;13.90;9.50;;;;;;;;;;4969591;28;20027;-52
2024/03/30 10:02:31;;;;;;;13.88;9.40;;;;;;;;;;4969620;28;20421;-50
2024/03/30 10:04:57;;;;;;;13.80;9.40;;;;;;;;;;4970625;28;20027;-51
2024/03/30 10:07:56;;;;;;;13.88;9.40;;;;;;;;;;4969796;28;20054;-48
2024/03/30 10:10:23;;;;;;;13.90;9.50;;;;;;;;;;4928085;28;20122;-48
2024/03/30 10:12:55;;;;;;;13.80;9.40;;;;;;;;;;4972362;28;20346;-50
2024/03/30 10:15:40;;;;;;;13.77;9.07;;;;;;;;;;4975364;28;20102;-50
2024/03/30 10:18:06;;;;;;;13.57;8.63;;;;;;;;;;4974302;28;20019;-51
2024/03/30 10:20:32;;;;;;;13.60;8.85;;;;;;;;;;4974441;28;20094;-50
2024/03/30 10:22:58;;;;;;;13.68;9.05;;;;;;;;;;4974644;28;20022;-55
2024/03/30 10:25:28;;;;;;;13.75;9.15;;;;;;;;;;4974681;28;20086;-58
2024/03/30 10:27:54;;;;;;;13.80;9.30;;;;;;;;;;4974406;28;20033;-59
2024/03/30 10:30:20;;;;;;;13.75;9.18;;;;;;;;;;4974224;28;20038;-57
2024/03/30 10:32:46;;;;;;;13.63;8.75;;;;;;;;;;4975041;28;20042;-56
2024/03/30 10:35:14;;;;;;;13.60;8.77;;;;;;;;;;4973325;28;20030;-52
2024/03/30 10:37:41;;;;;;;13.57;8.80;;;;;;;;;;4972894;28;20054;-57
2024/03/30 10:40:11;;;;;;;13.65;8.90;;;;;;;;;;4974348;28;20027;-60
2024/03/30 10:42:40;;;;;;;13.57;8.68;;;;;;;;;;4973577;28;20053;-60
2024/03/30 10:45:09;;;;;;;13.55;8.50;;;;;;;;;;4973360;28;20432;-58
2024/03/30 10:47:37;;;;;;;13.52;8.60;;;;;;;;;;4973147;28;20370;-59
2024/03/30 10:50:03;;;;;;;13.55;8.63;;;;;;;;;;4973384;28;20035;-60
2024/03/30 10:52:29;;;;;;;13.65;8.88;;;;;;;;;;4972226;28;20048;-60
2024/03/30 10:54:56;;;;;;;17.83;9.55;;;;;;;;;;4973103;28;20023;-61
2024/03/30 10:57:22;;;;;;;13.73;9.00;;;;;;;;;;4971895;28;20126;-60
2024/03/30 10:59:49;;;;;;;13.73;9.18;;;;;;;;;;4973126;28;20030;-61
2024/03/30 11:02:22;;;;;;;13.65;9.00;;;;;;;;;;4973070;28;20022;-60
2024/03/30 11:04:52;;;;;;;13.75;9.13;;;;;;;;;;4972717;28;20446;-60
2024/03/30 11:07:18;;;;;;;13.80;9.27;;;;;;;;;;4972554;28;20047;-60
2024/03/30 11:09:44;;;;;;;13.88;9.43;;;;;;;;;;4972762;28;20035;-60
2024/03/30 11:12:11;;;;;;;13.80;9.27;;;;;;;;;;4972142;28;20045;-61
2024/03/30 11:14:37;;;;;;;19.20;16.92;;;;;;;;;;4972714;28;20027;-61
2024/03/30 11:17:15;;;;;;;13.93;9.70;;;;;;;;;;4972679;28;20034;-62
2024/03/30 11:19:41;;;;;;;;;;;;;;;;;;4972734;28;20023;-50
2024/03/30 11:22:10;;;;;;;13.88;9.60;;;;;;;;;;4972390;28;19929;-48
2024/03/30 11:24:41;;;;;;;14.20;9.70;;;;;;;;;;4971852;28;20030;-51
2024/03/30 11:27:10;;;;;;;13.85;9.40;;;;;;;;;;4971882;28;20538;-52
2024/03/30 11:29:36;;;;;;;13.88;9.40;;;;;;;;;;4972007;28;20485;-49
2024/03/30 11:32:12;;;;;;;14.55;10.00;;;;;;;;;;4972311;28;20034;-54
2024/03/30 11:34:54;;;;;;;17.08;13.30;;;;;;;;;;4966124;28;20475;-49
2024/03/30 11:37:27;;;;;;;13.77;9.20;;;;;;;;;;4967435;28;20030;-48
2024/03/30 11:40:10;;;;;;;13.75;9.23;;;;;;;;;;4972464;28;20027;-51
2024/03/30 11:42:36;;;;;;;15.35;12.73;;;;;;;;;;4971859;28;20027;-49
2024/03/30 11:45:04;;;;;;;34.08;13.32;;;;;;;;;;4967771;28;20042;-48
2024/03/30 11:47:30;;;;;;;15.13;11.95;;;;;;;;;;4968846;28;20030;-52
2024/03/30 11:49:57;;;;;;;13.80;9.30;;;;;;;;;;4971138;28;20109;-55
2024/03/30 11:52:23;;;;;;;13.80;9.30;;;;;;;;;;4969880;28;20107;-51
2024/03/30 11:54:49;;;;;;;14.10;10.00;;;;;;;;;;4969265;28;20528;-49
2024/03/30 11:57:15;;;;;;;18.58;10.75;;;;;;;;;;4967885;28;20026;-51
2024/03/30 11:59:42;;;;;;;15.05;11.50;;;;;;;;;;4969756;28;20077;-52
2024/03/30 12:02:10;;;;;;;16.90;11.57;;;;;;;;;;4970037;28;20041;-51
2024/03/30 12:04:38;;;;;;;13.85;9.50;;;;;;;;;;4967748;28;20343;-49
2024/03/30 12:07:06;;;;;;;14.10;9.80;;;;;;;;;;4968005;28;20101;-49
2024/03/30 12:09:32;;;;;;;;;;;;;;;;;;4969523;28;20142;-50
2024/03/30 12:12:17;;;;;;;48.53;14.55;;;;;;;;;;4970660;28;19949;-48
2024/03/30 12:14:43;;;;;;;16.50;9.82;;;;;;;;;;4967603;28;20027;-48
2024/03/30 12:17:09;;;;;;;14.00;9.90;;;;;;;;;;4969218;28;20042;-49
2024/03/30 12:19:35;;;;;;;13.93;9.80;;;;;;;;;;4966979;28;20039;-54
2024/03/30 12:22:02;;;;;;;13.85;9.38;;;;;;;;;;4970829;28;20509;-52
2024/03/30 12:24:28;;;;;;;17.27;12.43;;;;;;;;;;4968862;28;20624;-48
2024/03/30 12:26:54;;;;;;;13.98;9.65;;;;;;;;;;4970692;28;20035;-51
2024/03/30 12:29:21;;;;;;;13.82;9.48;;;;;;;;;;4968255;28;20505;-50
2024/03/30 12:31:47;;;;;;;13.85;9.43;;;;;;;;;;4970883;28;20034;-49
2024/03/30 12:34:13;;;;;;;14.13;9.90;;;;;;;;;;4969125;28;20064;-52
2024/03/30 12:36:39;;;;;;;13.88;9.40;;;;;;;;;;4968239;28;20109;-49
2024/03/30 12:39:08;;;;;;;14.05;9.93;;;;;;;;;;4971604;28;20504;-50
2024/03/30 12:41:34;;;;;;;19.00;11.05;;;;;;;;;;4971042;28;20055;-45
2024/03/30 12:44:08;;;;;;;13.95;9.60;;;;;;;;;;4971590;28;20050;-51
2024/03/30 12:46:35;;;;;;;13.98;9.95;;;;;;;;;;4971825;28;20101;-49
2024/03/30 12:49:04;;;;;;;16.15;11.98;;;;;;;;;;4971641;28;20035;-54
2024/03/30 12:51:33;;;;;;;13.98;9.60;;;;;;;;;;4971679;28;20023;-52
2024/03/30 12:53:59;;;;;;;13.90;9.60;;;;;;;;;;4971389;28;20027;-51
2024/03/30 12:56:26;;;;;;;13.93;9.73;;;;;;;;;;4971410;28;20081;-54
2024/03/30 12:58:52;;;;;;;14.00;9.85;;;;;;;;;;4971523;28;20023;-52
2024/03/30 13:01:19;;;;;;;13.95;9.80;;;;;;;;;;4971985;28;20022;-49
2024/03/30 13:03:45;;;;;;;13.98;9.77;;;;;;;;;;4971342;28;20102;-52
2024/03/30 13:06:15;;;;;;;14.05;9.90;;;;;;;;;;4971283;28;20030;-51
2024/03/30 13:08:44;;;;;;;13.98;9.73;;;;;;;;;;4972018;28;20046;-49
2024/03/30 13:11:10;;;;;;;13.93;9.60;;;;;;;;;;4971349;28;20029;-50
2024/03/30 13:13:37;;;;;;;13.98;9.75;;;;;;;;;;4971752;28;20031;-47
2024/03/30 13:16:06;;;;;;;15.30;11.85;;;;;;;;;;4971760;28;20023;-46
2024/03/30 13:18:32;;;;;;;14.70;10.43;;;;;;;;;;4971629;28;20518;-49
2024/03/30 13:20:58;;;;;;;14.00;9.88;;;;;;;;;;4971500;28;20547;-47
2024/03/30 13:23:25;;;;;;;14.07;10.00;;;;;;;;;;4970157;28;20114;-45
2024/03/30 13:25:51;;;;;;;14.18;10.30;;;;;;;;;;4972109;28;20023;-47
2024/03/30 13:28:17;;;;;;;14.20;10.30;;;;;;;;;;4970657;28;20029;-46
2024/03/30 13:30:43;;;;;;;14.07;10.00;;;;;;;;;;4970862;28;20075;-48
2024/03/30 13:33:12;;;;;;;14.10;10.00;;;;;;;;;;4971900;28;20047;-47
2024/03/30 13:35:38;;;;;;;14.00;9.70;;;;;;;;;;4971919;28;20033;-45
2024/03/30 13:38:05;;;;;;;14.05;10.07;;;;;;;;;;4971694;28;20039;-49
2024/03/30 13:40:30;;;;;;;14.20;10.40;;;;;;;;;;4971788;28;20039;-51
2024/03/30 13:42:56;;;;;;;14.10;10.15;;;;;;;;;;4970693;28;20302;-50
2024/03/30 13:45:23;;;;;;;14.07;10.13;;;;;;;;;;4971243;28;20149;-48
2024/03/30 13:47:49;;;;;;;14.20;10.25;;;;;;;;;;4974254;28;20041;-52
2024/03/30 13:50:15;;;;;;;14.10;10.15;;;;;;;;;;4975626;28;20097;-49
2024/03/30 13:52:41;;;;;;;15.05;10.85;;;;;;;;;;4975440;28;20458;-49
2024/03/30 13:55:07;;;;;;;14.10;10.00;;;;;;;;;;4975003;28;20118;-49
2024/03/30 13:57:33;;;;;;;14.00;9.80;;;;;;;;;;4974974;28;20106;-51
2024/03/30 13:59:59;;;;;;;17.40;10.75;;;;;;;;;;4974856;28;20019;-48
2024/03/30 14:02:27;;;;;;;14.00;9.90;;;;;;;;;;4974510;28;20118;-51
2024/03/30 14:04:53;;;;;;;23.60;10.20;;;;;;;;;;4975110;28;20183;-52
2024/03/30 14:07:19;;;;;;;14.02;9.95;;;;;;;;;;4973241;28;20588;-47
2024/03/30 14:09:45;;;;;;;29.10;11.27;;;;;;;;;;4974868;28;20026;-48
2024/03/30 14:12:13;;;;;;;14.00;9.77;;;;;;;;;;4973520;28;20559;-53
2024/03/30 14:14:39;;;;;;;17.02;11.13;;;;;;;;;;4974637;28;20058;-49
2024/03/30 14:17:07;;;;;;;14.00;9.90;;;;;;;;;;4974826;28;20047;-51
2024/03/30 14:19:33;;;;;;;24.75;12.05;;;;;;;;;;4974530;28;20027;-46
2024/03/30 14:21:59;;;;;;;15.32;11.68;;;;;;;;;;4974319;28;20543;-47